Time;durP1;ratioP1;P1;durP2;ratioP2;P2;SDS_P1;SDS_P2;PMS_P1;PMS_P2;Temp;Humidity;BMP_temperature;BMP_pressure;BME280_temperature;BME280_humidity;BME280_pressure;Samples;Min_cycle;Max_cycle;Signal;HPM_P1;HPM_P2
2023/06/22 00:01:47;;;;;;;35.30;31.50;;;;;;;;;;4934609;28;20042;-88
2023/06/22 00:04:14;;;;;;;32.03;28.80;;;;;;;;;;4958071;28;20039;-88
2023/06/22 00:06:41;;;;;;;34.13;30.57;;;;;;;;;;4927144;28;20724;-87
2023/06/22 00:09:10;;;;;;;35.28;31.40;;;;;;;;;;4925180;28;20301;-88
2023/06/22 00:11:37;;;;;;;35.75;31.98;;;;;;;;;;4975048;28;20043;-88
2023/06/22 00:14:06;;;;;;;34.60;30.52;;;;;;;;;;4958377;28;20218;-88
2023/06/22 00:16:34;;;;;;;34.67;30.13;;;;;;;;;;4952582;28;20069;-87
2023/06/22 00:19:02;;;;;;;38.20;34.10;;;;;;;;;;4932035;28;20057;-87
2023/06/22 00:21:30;;;;;;;35.17;31.60;;;;;;;;;;4922528;28;20406;-88
2023/06/22 00:23:57;;;;;;;39.90;35.45;;;;;;;;;;4931295;28;20174;-87
2023/06/22 00:26:25;;;;;;;39.60;34.80;;;;;;;;;;4940256;28;20039;-87
2023/06/22 00:28:52;;;;;;;39.00;34.58;;;;;;;;;;4933508;28;20130;-87
2023/06/22 00:31:21;;;;;;;35.03;31.38;;;;;;;;;;4953660;28;20051;-87
2023/06/22 00:33:47;;;;;;;38.92;34.88;;;;;;;;;;4931084;28;20081;-88
2023/06/22 00:36:17;;;;;;;35.88;32.03;;;;;;;;;;4946917;28;20039;-87
2023/06/22 00:38:43;;;;;;;37.60;33.58;;;;;;;;;;4915786;28;20041;-88
2023/06/22 00:41:12;;;;;;;37.72;33.78;;;;;;;;;;4917682;28;20462;-88
2023/06/22 00:43:41;;;;;;;39.35;35.17;;;;;;;;;;4916532;28;20098;-89
2023/06/22 00:46:09;;;;;;;39.47;35.47;;;;;;;;;;4930073;28;20058;-87
2023/06/22 00:48:36;;;;;;;40.30;36.08;;;;;;;;;;4934270;28;20046;-88
2023/06/22 00:51:03;;;;;;;41.75;37.20;;;;;;;;;;4928002;28;20049;-88
2023/06/22 00:53:34;;;;;;;41.83;36.17;;;;;;;;;;4924956;28;20050;-88
2023/06/22 00:56:00;;;;;;;36.50;32.70;;;;;;;;;;4929769;28;20091;-88
2023/06/22 00:58:28;;;;;;;37.97;33.83;;;;;;;;;;4945693;28;20467;-88
2023/06/22 01:00:55;;;;;;;34.30;30.87;;;;;;;;;;4921399;28;20046;-87
2023/06/22 01:03:22;;;;;;;38.77;34.87;;;;;;;;;;4955490;28;20305;-87
2023/06/22 01:05:49;;;;;;;41.70;37.40;;;;;;;;;;4952216;28;20566;-87
2023/06/22 01:08:37;;;;;;;39.50;35.30;;;;;;;;;;4956529;28;20309;-87
2023/06/22 01:11:22;;;;;;;39.33;35.17;;;;;;;;;;4952252;28;20344;-87
2023/06/22 01:13:50;;;;;;;39.53;35.38;;;;;;;;;;4954080;28;20058;-88
2023/06/22 01:16:21;;;;;;;35.30;31.73;;;;;;;;;;4953864;28;20042;-88
2023/06/22 01:18:47;;;;;;;35.58;32.15;;;;;;;;;;4935322;28;20540;-88
2023/06/22 01:21:16;;;;;;;33.78;30.52;;;;;;;;;;4951290;28;20478;-87
2023/06/22 01:24:03;;;;;;;29.77;26.77;;;;;;;;;;4950677;28;20113;-87
2023/06/22 01:26:47;;;;;;;31.48;28.27;;;;;;;;;;4950621;28;20064;-88
2023/06/22 01:29:15;;;;;;;27.33;24.63;;;;;;;;;;4955250;28;20470;-88
2023/06/22 01:31:43;;;;;;;27.35;24.48;;;;;;;;;;4939394;28;20066;-87
2023/06/22 01:34:10;;;;;;;27.65;25.05;;;;;;;;;;4935872;28;20125;-87
2023/06/22 01:36:37;;;;;;;30.00;27.10;;;;;;;;;;4938593;28;20140;-87
2023/06/22 01:39:04;;;;;;;33.03;29.67;;;;;;;;;;4936733;28;20875;-87
2023/06/22 01:41:38;;;;;;;33.38;30.00;;;;;;;;;;4938491;28;20042;-87
2023/06/22 01:44:07;;;;;;;33.10;29.05;;;;;;;;;;4935397;28;20084;-87
2023/06/22 01:46:35;;;;;;;33.88;30.40;;;;;;;;;;4940366;28;20394;-88
2023/06/22 01:49:02;;;;;;;;;;;;;;;;;;4948598;28;20155;-87
2023/06/22 01:51:30;;;;;;;37.13;33.08;;;;;;;;;;4954610;28;20603;-87
2023/06/22 01:53:57;;;;;;;40.05;35.95;;;;;;;;;;4936140;28;20046;-88
2023/06/22 01:56:24;;;;;;;37.27;33.30;;;;;;;;;;4926371;28;21203;-87
2023/06/22 01:59:09;;;;;;;38.42;34.40;;;;;;;;;;4956097;28;20484;-87
2023/06/22 02:02:07;;;;;;;36.08;32.20;;;;;;;;;;4956466;28;20166;-86
2023/06/22 02:04:55;;;;;;;37.17;33.20;;;;;;;;;;4949595;28;20078;-87
2023/06/22 02:07:23;;;;;;;37.20;33.30;;;;;;;;;;4963869;28;20398;-87
2023/06/22 02:09:50;;;;;;;;;;;;;;;;;;4942670;28;20065;-88
2023/06/22 02:12:18;;;;;;;39.33;35.10;;;;;;;;;;4974216;28;22010;-87
2023/06/22 02:14:45;;;;;;;36.75;32.78;;;;;;;;;;4943597;28;20311;-87
2023/06/22 02:17:12;;;;;;;35.70;31.87;;;;;;;;;;4943224;28;20105;-87
2023/06/22 02:19:41;;;;;;;36.10;32.25;;;;;;;;;;4952713;28;20042;-87
2023/06/22 02:22:09;;;;;;;37.90;34.00;;;;;;;;;;4942855;28;20490;-88
2023/06/22 02:24:37;;;;;;;36.50;32.65;;;;;;;;;;4959790;28;20045;-87
2023/06/22 02:27:06;;;;;;;39.05;34.85;;;;;;;;;;4935504;28;20038;-87
2023/06/22 02:29:34;;;;;;;37.40;33.10;;;;;;;;;;4947637;28;20073;-87
2023/06/22 02:32:01;;;;;;;37.93;33.77;;;;;;;;;;4951118;28;20088;-87
2023/06/22 02:34:28;;;;;;;32.28;29.05;;;;;;;;;;4939071;28;20084;-87
2023/06/22 02:36:55;;;;;;;35.75;31.48;;;;;;;;;;4936785;28;20078;-87
2023/06/22 02:39:24;;;;;;;33.57;30.07;;;;;;;;;;4939197;28;20034;-87
2023/06/22 02:41:54;;;;;;;36.70;32.80;;;;;;;;;;4949428;28;20042;-87
2023/06/22 02:44:22;;;;;;;34.40;30.77;;;;;;;;;;4921842;28;20042;-87
2023/06/22 02:46:49;;;;;;;32.72;29.30;;;;;;;;;;4948170;28;20049;-87
2023/06/22 02:49:17;;;;;;;32.97;29.10;;;;;;;;;;4964762;28;20046;-86
2023/06/22 02:51:47;;;;;;;34.83;31.10;;;;;;;;;;4935795;28;20313;-87
2023/06/22 02:54:15;;;;;;;29.80;26.83;;;;;;;;;;4941018;28;20520;-87
2023/06/22 02:56:43;;;;;;;30.88;27.65;;;;;;;;;;4954455;28;20054;-87
2023/06/22 02:59:10;;;;;;;29.10;26.13;;;;;;;;;;4938780;28;20055;-87
2023/06/22 03:01:39;;;;;;;31.13;27.80;;;;;;;;;;4941524;28;20046;-87
2023/06/22 03:04:07;;;;;;;31.95;27.80;;;;;;;;;;4937118;28;20405;-87
2023/06/22 03:06:34;;;;;;;28.48;25.55;;;;;;;;;;4932051;28;20053;-87
2023/06/22 03:09:04;;;;;;;32.80;29.23;;;;;;;;;;4935422;28;20081;-87
2023/06/22 03:11:35;;;;;;;36.42;31.45;;;;;;;;;;4942115;28;20050;-87
2023/06/22 03:14:02;;;;;;;34.28;29.63;;;;;;;;;;4935563;28;20038;-87
2023/06/22 03:16:29;;;;;;;33.85;30.17;;;;;;;;;;4941421;28;20105;-87
2023/06/22 03:18:57;;;;;;;37.27;32.83;;;;;;;;;;4952420;28;20145;-87
2023/06/22 03:21:24;;;;;;;35.00;30.67;;;;;;;;;;4946586;28;20086;-87
2023/06/22 03:23:51;;;;;;;39.40;34.47;;;;;;;;;;4961637;28;20050;-87
2023/06/22 03:26:19;;;;;;;39.95;35.65;;;;;;;;;;4938448;28;20470;-87
2023/06/22 03:28:46;;;;;;;37.53;32.80;;;;;;;;;;4938338;28;20506;-87
2023/06/22 03:31:14;;;;;;;36.35;32.63;;;;;;;;;;4974857;28;20046;-87
2023/06/22 03:33:42;;;;;;;36.58;32.67;;;;;;;;;;4944395;28;20447;-87
2023/06/22 03:36:09;;;;;;;34.88;30.65;;;;;;;;;;4942311;28;20496;-87
2023/06/22 03:38:36;;;;;;;36.47;32.57;;;;;;;;;;4955583;28;20038;-87
2023/06/22 03:41:04;;;;;;;34.47;30.67;;;;;;;;;;4926880;28;20042;-87
2023/06/22 03:43:31;;;;;;;35.67;31.83;;;;;;;;;;4955947;28;20305;-88
2023/06/22 03:45:57;;;;;;;42.23;37.63;;;;;;;;;;4923081;28;20045;-87
2023/06/22 03:48:24;;;;;;;41.00;36.55;;;;;;;;;;4941876;28;20316;-86
2023/06/22 03:50:51;;;;;;;42.03;37.63;;;;;;;;;;4930293;28;20059;-87
2023/06/22 03:53:19;;;;;;;41.63;37.22;;;;;;;;;;4920654;28;20074;-87
2023/06/22 03:55:51;;;;;;;40.47;36.17;;;;;;;;;;4965984;28;20062;-87
2023/06/22 03:58:19;;;;;;;41.00;35.85;;;;;;;;;;4954904;28;20061;-87
2023/06/22 04:00:49;;;;;;;43.73;38.83;;;;;;;;;;4954524;28;20483;-87
2023/06/22 04:03:20;;;;;;;41.25;36.95;;;;;;;;;;4940939;28;20046;-87
2023/06/22 04:05:46;;;;;;;51.17;42.75;;;;;;;;;;4942605;28;20056;-87
2023/06/22 04:08:13;;;;;;;47.63;42.45;;;;;;;;;;4951280;28;20123;-87
2023/06/22 04:10:43;;;;;;;52.22;44.70;;;;;;;;;;4919615;28;20498;-86
2023/06/22 04:13:10;;;;;;;47.35;42.25;;;;;;;;;;4934167;28;20433;-87
2023/06/22 04:15:37;;;;;;;32.27;29.03;;;;;;;;;;4933740;28;20053;-86
2023/06/22 04:18:06;;;;;;;25.13;22.70;;;;;;;;;;4948952;28;20878;-88
2023/06/22 04:20:34;;;;;;;22.38;20.02;;;;;;;;;;4968010;28;20341;-87
2023/06/22 04:23:01;;;;;;;18.45;16.85;;;;;;;;;;4920391;28;20053;-87
2023/06/22 04:25:29;;;;;;;25.35;22.95;;;;;;;;;;4939889;28;20096;-87
2023/06/22 04:27:56;;;;;;;31.83;28.83;;;;;;;;;;4933708;28;20049;-87
2023/06/22 04:30:23;;;;;;;39.08;35.20;;;;;;;;;;4944338;28;20401;-87
2023/06/22 04:33:00;;;;;;;39.90;35.70;;;;;;;;;;4922378;28;20505;-86
2023/06/22 04:35:28;;;;;;;41.95;37.47;;;;;;;;;;4969839;28;20042;-86
2023/06/22 04:37:56;;;;;;;38.45;34.55;;;;;;;;;;4933476;28;20046;-87
2023/06/22 04:40:23;;;;;;;;;;;;;;;;;;4951504;28;20494;-87
2023/06/22 04:42:54;;;;;;;39.17;35.30;;;;;;;;;;4932632;28;20332;-86
2023/06/22 04:45:22;;;;;;;41.85;37.38;;;;;;;;;;4939081;28;20045;-86
2023/06/22 04:47:49;;;;;;;42.95;38.55;;;;;;;;;;4933826;28;20499;-87
2023/06/22 04:50:17;;;;;;;41.72;37.40;;;;;;;;;;4920434;28;20035;-86
2023/06/22 04:52:43;;;;;;;44.85;40.15;;;;;;;;;;4917558;28;20049;-85
2023/06/22 04:55:11;;;;;;;41.38;37.15;;;;;;;;;;4967613;28;20085;-84
2023/06/22 04:57:39;;;;;;;40.47;36.17;;;;;;;;;;4949713;28;20042;-83
2023/06/22 05:00:16;;;;;;;42.75;38.05;;;;;;;;;;4933471;28;20065;-86
2023/06/22 05:02:47;;;;;;;45.63;40.70;;;;;;;;;;4943131;28;20038;-84
2023/06/22 05:05:15;;;;;;;47.17;40.83;;;;;;;;;;4936605;28;20049;-83
2023/06/22 05:07:48;;;;;;;43.47;38.47;;;;;;;;;;4957543;28;20045;-83
2023/06/22 05:10:15;;;;;;;45.75;40.88;;;;;;;;;;4941344;28;20035;-84
2023/06/22 05:12:43;;;;;;;45.55;40.53;;;;;;;;;;4944098;28;20038;-84
2023/06/22 05:15:10;;;;;;;46.75;41.70;;;;;;;;;;4955679;28;20519;-85
2023/06/22 05:17:42;;;;;;;44.65;39.92;;;;;;;;;;4959778;28;20362;-86
2023/06/22 05:20:13;;;;;;;45.13;40.25;;;;;;;;;;4927196;28;20045;-86
2023/06/22 05:22:40;;;;;;;42.47;37.65;;;;;;;;;;4934195;28;20038;-86
2023/06/22 05:25:08;;;;;;;43.83;39.13;;;;;;;;;;4963156;28;20042;-86
2023/06/22 05:27:39;;;;;;;41.85;37.35;;;;;;;;;;4956615;28;20034;-86
2023/06/22 05:30:06;;;;;;;41.22;35.63;;;;;;;;;;4947611;28;20038;-86
2023/06/22 05:32:34;;;;;;;41.58;36.97;;;;;;;;;;4949515;28;20038;-85
2023/06/22 05:35:01;;;;;;;39.75;35.35;;;;;;;;;;4928774;28;20045;-86
2023/06/22 05:37:28;;;;;;;41.72;37.28;;;;;;;;;;4940487;28;20524;-86
2023/06/22 05:39:57;;;;;;;42.08;35.67;;;;;;;;;;4927434;28;20041;-85
2023/06/22 05:42:25;;;;;;;;;;;;;;;;;;4929143;28;20042;-86
2023/06/22 05:44:53;;;;;;;40.80;36.47;;;;;;;;;;4954406;28;20000;-86
2023/06/22 05:47:21;;;;;;;40.17;35.88;;;;;;;;;;4945612;28;20104;-86
2023/06/22 05:49:48;;;;;;;40.22;36.00;;;;;;;;;;4924547;28;20625;-86
2023/06/22 05:52:15;;;;;;;38.92;35.05;;;;;;;;;;4926846;28;20121;-85
2023/06/22 05:54:43;;;;;;;41.10;36.90;;;;;;;;;;4964004;28;20046;-86
2023/06/22 05:57:10;;;;;;;39.00;34.95;;;;;;;;;;4947040;28;20077;-86
2023/06/22 05:59:37;;;;;;;39.72;35.58;;;;;;;;;;4928187;28;20046;-86
2023/06/22 06:02:05;;;;;;;38.95;34.80;;;;;;;;;;4963009;28;20073;-86
2023/06/22 06:04:34;;;;;;;37.28;33.58;;;;;;;;;;4963917;28;20038;-86
2023/06/22 06:07:01;;;;;;;36.92;33.08;;;;;;;;;;4926116;28;20438;-86
2023/06/22 06:09:29;;;;;;;36.83;31.47;;;;;;;;;;4944389;28;20047;-85
2023/06/22 06:11:56;;;;;;;36.67;32.05;;;;;;;;;;4939896;28;20571;-86
2023/06/22 06:14:23;;;;;;;34.10;30.52;;;;;;;;;;4947657;28;20048;-86
2023/06/22 06:16:51;;;;;;;32.28;28.92;;;;;;;;;;4953412;28;20049;-87
2023/06/22 06:19:18;;;;;;;30.15;27.05;;;;;;;;;;4944217;28;20196;-86
2023/06/22 06:21:46;;;;;;;30.58;27.42;;;;;;;;;;4956042;28;20070;-86
2023/06/22 06:24:13;;;;;;;28.40;25.45;;;;;;;;;;4943698;28;20481;-86
2023/06/22 06:26:40;;;;;;;28.80;25.85;;;;;;;;;;4943427;28;20057;-86
2023/06/22 06:29:08;;;;;;;27.70;24.90;;;;;;;;;;4952842;28;20053;-86
2023/06/22 06:31:36;;;;;;;27.87;25.07;;;;;;;;;;4928303;28;20046;-86
2023/06/22 06:34:03;;;;;;;27.35;24.08;;;;;;;;;;4929128;28;20046;-87
2023/06/22 06:36:31;;;;;;;26.23;23.53;;;;;;;;;;4943308;28;20054;-87
2023/06/22 06:38:58;;;;;;;;;;;;;;;;;;4938345;28;20725;-86
2023/06/22 06:41:25;;;;;;;24.58;22.23;;;;;;;;;;4940964;28;19968;-87
2023/06/22 06:43:53;;;;;;;22.07;19.83;;;;;;;;;;4950234;28;20045;-87
2023/06/22 06:46:20;;;;;;;22.83;19.73;;;;;;;;;;4921344;28;20469;-87
2023/06/22 06:48:47;;;;;;;22.05;19.75;;;;;;;;;;4970199;28;20054;-86
2023/06/22 06:51:16;;;;;;;20.73;18.05;;;;;;;;;;4937259;28;20043;-86
2023/06/22 06:53:43;;;;;;;16.08;14.48;;;;;;;;;;4942765;28;20038;-86
2023/06/22 06:56:10;;;;;;;14.93;12.98;;;;;;;;;;4937597;28;20112;-87
2023/06/22 06:58:37;;;;;;;13.25;11.95;;;;;;;;;;4928273;28;20074;-86
2023/06/22 07:01:05;;;;;;;13.80;12.07;;;;;;;;;;4973132;28;20053;-86
2023/06/22 07:03:33;;;;;;;13.45;11.93;;;;;;;;;;4932162;28;20038;-86
2023/06/22 07:06:00;;;;;;;12.18;10.95;;;;;;;;;;4964447;28;20034;-86
2023/06/22 07:08:28;;;;;;;11.43;10.27;;;;;;;;;;4966805;28;21362;-86
2023/06/22 07:10:54;;;;;;;10.07;9.18;;;;;;;;;;4978294;28;20325;-86
2023/06/22 07:13:22;;;;;;;10.95;9.85;;;;;;;;;;4932214;28;20053;-86
2023/06/22 07:15:48;;;;;;;9.68;8.68;;;;;;;;;;4944808;28;20042;-87
2023/06/22 07:18:16;;;;;;;10.23;8.68;;;;;;;;;;4950533;28;20045;-87
2023/06/22 07:20:44;;;;;;;8.95;7.85;;;;;;;;;;4964253;28;20121;-87
2023/06/22 07:23:11;;;;;;;9.40;7.53;;;;;;;;;;4947266;28;20105;-87
2023/06/22 07:25:38;;;;;;;8.88;7.97;;;;;;;;;;4934411;28;20049;-88
2023/06/22 07:28:06;;;;;;;8.65;7.88;;;;;;;;;;4923187;28;20046;-88
2023/06/22 07:30:33;;;;;;;;;;;;;;;;;;4943242;28;20084;-88
2023/06/22 07:33:04;;;;;;;9.38;8.20;;;;;;;;;;4947205;28;19926;-88
2023/06/22 07:35:34;;;;;;;7.80;7.10;;;;;;;;;;4933698;28;20046;-87
2023/06/22 07:38:02;;;;;;;9.02;7.60;;;;;;;;;;4923769;28;20105;-87
2023/06/22 07:40:29;;;;;;;8.77;7.88;;;;;;;;;;4948686;28;21516;-88
2023/06/22 07:42:56;;;;;;;8.38;7.57;;;;;;;;;;4957037;28;20091;-88
2023/06/22 07:45:22;;;;;;;9.55;8.25;;;;;;;;;;4939705;28;20132;-88
2023/06/22 07:47:48;;;;;;;8.13;7.30;;;;;;;;;;4955701;28;20085;-89
2023/06/22 07:50:16;;;;;;;9.02;8.18;;;;;;;;;;4942560;28;20038;-88
2023/06/22 07:52:43;;;;;;;8.40;7.18;;;;;;;;;;4943533;28;20034;-88
2023/06/22 07:55:10;;;;;;;9.60;7.10;;;;;;;;;;4958736;28;20053;-88
2023/06/22 07:57:37;;;;;;;10.73;7.38;;;;;;;;;;4960773;28;20096;-87
2023/06/22 08:00:12;;;;;;;7.80;6.80;;;;;;;;;;4959056;28;20042;-89
2023/06/22 08:02:40;;;;;;;7.22;6.53;;;;;;;;;;4932417;28;20037;-88
2023/06/22 08:05:08;;;;;;;7.13;6.43;;;;;;;;;;4928623;28;20042;-88
2023/06/22 08:07:37;;;;;;;8.57;6.72;;;;;;;;;;4933392;28;20077;-89
2023/06/22 08:10:05;;;;;;;8.02;7.30;;;;;;;;;;4928188;28;22610;-88
2023/06/22 08:12:33;;;;;;;;;;;;;;;;;;4972709;28;20452;-89
2023/06/22 08:15:00;;;;;;;8.90;8.02;;;;;;;;;;4938392;28;20024;-89
2023/06/22 08:17:29;;;;;;;9.55;8.18;;;;;;;;;;4958423;28;20519;-88
2023/06/22 08:19:56;;;;;;;8.40;7.35;;;;;;;;;;4932499;28;20038;-88
2023/06/22 08:22:24;;;;;;;10.63;8.77;;;;;;;;;;4955558;28;20042;-88
2023/06/22 08:24:51;;;;;;;9.00;8.10;;;;;;;;;;4940551;28;20042;-89
2023/06/22 08:27:21;;;;;;;8.60;7.15;;;;;;;;;;4958958;28;20050;-88
2023/06/22 08:29:49;;;;;;;7.40;6.70;;;;;;;;;;4935072;28;20387;-89
2023/06/22 08:32:17;;;;;;;7.95;6.85;;;;;;;;;;4942535;28;20046;-88
2023/06/22 08:34:45;;;;;;;10.13;7.40;;;;;;;;;;4963945;28;20042;-88
2023/06/22 08:37:13;;;;;;;8.18;6.53;;;;;;;;;;4963233;28;20153;-89
2023/06/22 08:39:41;;;;;;;8.05;7.25;;;;;;;;;;4974209;28;20073;-88
2023/06/22 08:42:08;;;;;;;8.38;7.45;;;;;;;;;;4957465;28;20034;-88
2023/06/22 08:44:35;;;;;;;8.10;6.90;;;;;;;;;;4944290;28;20038;-89
2023/06/22 08:47:03;;;;;;;7.20;6.50;;;;;;;;;;4937322;28;20302;-89
2023/06/22 08:49:30;;;;;;;7.00;6.30;;;;;;;;;;4942985;28;20069;-89
2023/06/22 08:51:58;;;;;;;7.97;7.18;;;;;;;;;;4955350;28;20057;-89
2023/06/22 08:54:26;;;;;;;9.90;7.35;;;;;;;;;;4946528;28;20050;-89
2023/06/22 08:56:53;;;;;;;14.13;7.35;;;;;;;;;;4972145;28;20077;-89
2023/06/22 08:59:20;;;;;;;7.97;7.22;;;;;;;;;;4960069;28;20058;-89
2023/06/22 09:01:48;;;;;;;9.43;7.32;;;;;;;;;;4947969;28;20042;-89
2023/06/22 09:04:15;;;;;;;7.47;6.75;;;;;;;;;;4950161;28;20038;-89
2023/06/22 09:06:46;;;;;;;8.40;7.50;;;;;;;;;;4952467;28;20034;-89
2023/06/22 09:09:16;;;;;;;7.53;6.78;;;;;;;;;;4951412;28;20041;-89
2023/06/22 09:11:44;;;;;;;7.95;7.15;;;;;;;;;;4951012;28;20496;-89
2023/06/22 09:14:11;;;;;;;;;;;;;;;;;;4953545;28;20497;-89
2023/06/22 09:16:38;;;;;;;8.95;7.78;;;;;;;;;;4951820;28;19921;-89
2023/06/22 09:19:06;;;;;;;8.88;7.60;;;;;;;;;;4929632;28;22963;-89
2023/06/22 09:21:33;;;;;;;8.20;7.38;;;;;;;;;;4967569;28;20038;-89
2023/06/22 09:24:00;;;;;;;7.57;6.75;;;;;;;;;;4944509;28;20527;-89
2023/06/22 09:26:28;;;;;;;9.70;7.63;;;;;;;;;;4952027;28;20057;-90
2023/06/22 09:28:55;;;;;;;;;;;;;;;;;;4947923;28;20050;-89
2023/06/22 09:31:26;;;;;;;8.48;7.07;;;;;;;;;;4981642;28;19928;-90
2023/06/22 09:33:56;;;;;;;10.88;8.45;;;;;;;;;;4974305;28;20081;-90
2023/06/22 09:36:25;;;;;;;9.80;7.70;;;;;;;;;;4931636;28;20394;-89
2023/06/22 09:38:55;;;;;;;7.53;6.82;;;;;;;;;;4941850;28;20049;-89
2023/06/22 09:41:29;;;;;;;8.77;7.78;;;;;;;;;;4947787;28;20569;-90
2023/06/22 09:43:57;;;;;;;10.40;9.30;;;;;;;;;;4927619;28;20039;-90
2023/06/22 09:46:27;;;;;;;10.13;7.72;;;;;;;;;;4927878;28;20045;-89
2023/06/22 09:48:54;;;;;;;8.15;6.43;;;;;;;;;;4942147;28;20132;-90
2023/06/22 09:51:23;;;;;;;7.60;6.85;;;;;;;;;;4945103;28;20056;-90
2023/06/22 09:53:51;;;;;;;8.48;7.10;;;;;;;;;;4954638;28;20050;-89
2023/06/22 09:56:18;;;;;;;8.15;6.78;;;;;;;;;;4962212;28;20153;-90
2023/06/22 09:58:46;;;;;;;7.90;7.03;;;;;;;;;;4941125;28;20116;-88
2023/06/22 10:01:18;;;;;;;8.48;7.53;;;;;;;;;;4959514;28;20088;-90
2023/06/22 10:03:45;;;;;;;9.63;8.68;;;;;;;;;;4947666;28;20050;-90
2023/06/22 10:06:11;;;;;;;8.88;8.15;;;;;;;;;;4932597;28;20129;-90
2023/06/22 10:08:39;;;;;;;9.43;8.43;;;;;;;;;;4947324;28;20425;-90
2023/06/22 10:11:06;;;;;;;9.48;8.02;;;;;;;;;;4927326;28;20045;-90
2023/06/22 10:13:33;;;;;;;7.38;6.68;;;;;;;;;;4946836;28;20072;-90
2023/06/22 10:16:00;;;;;;;8.35;7.63;;;;;;;;;;4945693;28;20121;-90
2023/06/22 10:18:28;;;;;;;8.45;7.30;;;;;;;;;;4934990;28;20768;-90
2023/06/22 10:20:55;;;;;;;7.78;6.63;;;;;;;;;;4945551;28;20062;-90
2023/06/22 10:23:23;;;;;;;8.85;7.07;;;;;;;;;;4950583;28;20042;-90
2023/06/22 10:25:50;;;;;;;9.80;6.80;;;;;;;;;;4930555;28;20045;-90
2023/06/22 10:28:17;;;;;;;8.07;5.47;;;;;;;;;;4931295;28;20102;-90
2023/06/22 10:30:44;;;;;;;9.38;7.30;;;;;;;;;;4930556;28;21755;-89
2023/06/22 10:33:11;;;;;;;9.07;6.93;;;;;;;;;;4947073;28;20042;-90
2023/06/22 10:35:39;;;;;;;;;;;;;;;;;;4950426;28;20121;-91
2023/06/22 10:38:06;;;;;;;;;;;;;;;;;;4965879;28;19932;-89
2023/06/22 10:40:33;;;;;;;;;;;;;;;;;;4949611;28;19917;-90
2023/06/22 10:43:00;;;;;;;9.43;8.43;;;;;;;;;;4966441;28;19929;-90
2023/06/22 10:45:28;;;;;;;8.02;7.32;;;;;;;;;;4931880;28;20485;-90
2023/06/22 10:47:55;;;;;;;8.10;7.30;;;;;;;;;;4942677;28;20047;-90
2023/06/22 10:50:26;;;;;;;7.60;6.90;;;;;;;;;;4950627;28;20576;-90
2023/06/22 10:52:54;;;;;;;8.02;7.18;;;;;;;;;;4947113;28;20038;-91
2023/06/22 10:55:21;;;;;;;7.03;6.32;;;;;;;;;;4949750;28;20042;-90
2023/06/22 10:57:49;;;;;;;7.13;6.40;;;;;;;;;;4929711;28;20510;-89
2023/06/22 11:00:16;;;;;;;8.20;7.03;;;;;;;;;;4961255;28;20521;-89
2023/06/22 11:02:44;;;;;;;7.30;6.60;;;;;;;;;;4959920;28;20474;-90
2023/06/22 11:05:11;;;;;;;;;;;;;;;;;;4944633;28;20392;-89
2023/06/22 11:07:41;;;;;;;6.97;6.38;;;;;;;;;;4964543;28;20384;-90
2023/06/22 11:10:09;;;;;;;7.07;6.43;;;;;;;;;;4956718;28;20046;-90
2023/06/22 11:12:36;;;;;;;8.70;7.15;;;;;;;;;;4931857;28;20811;-90
2023/06/22 11:15:04;;;;;;;6.22;5.65;;;;;;;;;;4926057;28;20446;-90
2023/06/22 11:17:31;;;;;;;9.18;7.70;;;;;;;;;;4934446;28;20133;-90
2023/06/22 11:20:00;;;;;;;9.27;7.05;;;;;;;;;;4944285;28;20051;-89
2023/06/22 11:22:29;;;;;;;8.00;5.78;;;;;;;;;;4949981;28;20043;-90
2023/06/22 11:24:57;;;;;;;9.43;6.40;;;;;;;;;;4957874;28;20049;-91
2023/06/22 11:27:24;;;;;;;8.25;6.40;;;;;;;;;;4928026;28;20038;-90
2023/06/22 11:29:52;;;;;;;7.13;5.93;;;;;;;;;;4928676;28;20046;-90
2023/06/22 11:32:20;;;;;;;10.20;6.47;;;;;;;;;;4932913;28;20046;-90
2023/06/22 11:34:47;;;;;;;8.10;7.25;;;;;;;;;;4927666;28;20046;-91
2023/06/22 11:37:15;;;;;;;8.20;6.93;;;;;;;;;;4963508;28;20030;-90
2023/06/22 11:39:42;;;;;;;6.63;6.03;;;;;;;;;;4976786;28;20049;-90
2023/06/22 11:42:10;;;;;;;6.03;5.43;;;;;;;;;;4945560;28;20532;-90
2023/06/22 11:44:37;;;;;;;;;;;;;;;;;;4963068;28;20049;-90
2023/06/22 11:47:04;;;;;;;5.88;5.35;;;;;;;;;;4961844;28;20447;-90
2023/06/22 11:49:32;;;;;;;;;;;;;;;;;;4934896;28;20099;-91
2023/06/22 11:51:59;;;;;;;;;;;;;;;;;;4944966;28;19922;-90
2023/06/22 11:54:26;;;;;;;;;;;;;;;;;;4951939;28;19925;-90
2023/06/22 11:56:53;;;;;;;;;;;;;;;;;;4963603;28;19997;-90
2023/06/22 11:59:23;;;;;;;6.35;5.75;;;;;;;;;;4947914;28;19941;-90
2023/06/22 12:01:51;;;;;;;6.25;5.63;;;;;;;;;;4946013;28;20057;-90
2023/06/22 12:04:18;;;;;;;5.75;5.25;;;;;;;;;;4927861;28;20045;-89
2023/06/22 12:06:46;;;;;;;6.15;4.97;;;;;;;;;;4952171;28;20042;-90
2023/06/22 12:09:14;;;;;;;6.65;5.50;;;;;;;;;;4951550;28;20120;-89
2023/06/22 12:11:41;;;;;;;6.28;5.55;;;;;;;;;;4977851;28;20037;-91
2023/06/22 12:14:12;;;;;;;8.23;6.97;;;;;;;;;;4930828;28;20038;-90
2023/06/22 12:16:39;;;;;;;8.88;6.32;;;;;;;;;;4947832;28;20397;-91
2023/06/22 12:19:07;;;;;;;7.50;6.05;;;;;;;;;;4927487;28;20046;-90
2023/06/22 12:21:34;;;;;;;6.25;5.60;;;;;;;;;;4947369;28;20753;-90
2023/06/22 12:24:04;;;;;;;7.40;6.68;;;;;;;;;;4930404;28;20044;-90
2023/06/22 12:26:31;;;;;;;6.65;6.03;;;;;;;;;;4945790;28;20161;-90
2023/06/22 12:28:58;;;;;;;;;;;;;;;;;;4927269;28;20050;-90
2023/06/22 12:31:24;;;;;;;8.13;6.35;;;;;;;;;;4976687;28;19918;-90
2023/06/22 12:33:56;;;;;;;5.47;5.00;;;;;;;;;;4939695;28;20053;-90
2023/06/22 12:36:24;;;;;;;5.57;5.00;;;;;;;;;;4942672;28;20086;-90
2023/06/22 12:38:51;;;;;;;;;;;;;;;;;;4953624;28;20054;-90
2023/06/22 12:41:28;;;;;;;6.93;5.50;;;;;;;;;;4981342;28;19976;-90
2023/06/22 12:43:55;;;;;;;;;;;;;;;;;;4933244;28;20049;-91
2023/06/22 12:46:23;;;;;;;6.53;4.88;;;;;;;;;;4946926;28;20324;-90
2023/06/22 12:48:50;;;;;;;6.22;5.00;;;;;;;;;;4945580;28;20197;-90
2023/06/22 12:51:27;;;;;;;6.00;5.47;;;;;;;;;;4949707;28;20050;-90
2023/06/22 12:53:54;;;;;;;6.28;4.43;;;;;;;;;;4945451;28;20057;-90
2023/06/22 12:56:21;;;;;;;8.77;5.20;;;;;;;;;;4947467;28;20076;-89
2023/06/22 12:58:48;;;;;;;5.55;5.00;;;;;;;;;;4915721;28;20104;-90
2023/06/22 13:01:17;;;;;;;6.80;5.18;;;;;;;;;;4931315;28;20031;-90
2023/06/22 13:03:54;;;;;;;7.15;5.05;;;;;;;;;;4946721;28;20043;-90
2023/06/22 13:06:20;;;;;;;5.88;5.30;;;;;;;;;;4930026;28;20768;-90
2023/06/22 13:08:49;;;;;;;4.75;4.32;;;;;;;;;;4910276;28;20142;-90
2023/06/22 13:11:15;;;;;;;5.72;5.13;;;;;;;;;;4945762;28;20078;-90
2023/06/22 13:13:41;;;;;;;5.03;4.55;;;;;;;;;;4946775;28;20031;-90
2023/06/22 13:16:07;;;;;;;8.23;4.85;;;;;;;;;;4933061;28;20070;-90
2023/06/22 13:18:35;;;;;;;5.97;5.38;;;;;;;;;;4931179;28;20047;-90
2023/06/22 13:21:02;;;;;;;5.43;4.93;;;;;;;;;;4932384;28;20041;-90
2023/06/22 13:23:28;;;;;;;5.80;5.15;;;;;;;;;;4931173;28;20039;-90
2023/06/22 13:25:54;;;;;;;8.07;5.10;;;;;;;;;;4926276;28;20042;-90
2023/06/22 13:28:20;;;;;;;5.57;5.07;;;;;;;;;;4915433;28;20046;-90
2023/06/22 13:30:47;;;;;;;5.82;5.25;;;;;;;;;;4941683;28;20043;-90
2023/06/22 13:33:16;;;;;;;7.63;6.00;;;;;;;;;;4933748;28;20097;-90
2023/06/22 13:35:47;;;;;;;7.65;5.53;;;;;;;;;;4942858;28;20125;-89
2023/06/22 13:38:14;;;;;;;13.32;6.93;;;;;;;;;;4916243;28;20047;-89
2023/06/22 13:40:40;;;;;;;12.77;6.05;;;;;;;;;;4915601;28;20051;-90
2023/06/22 13:43:08;;;;;;;7.20;6.35;;;;;;;;;;4914120;28;20045;-89
2023/06/22 13:45:34;;;;;;;7.65;5.82;;;;;;;;;;4931853;28;20433;-89
2023/06/22 13:48:00;;;;;;;8.52;5.88;;;;;;;;;;4929882;28;20042;-90
2023/06/22 13:50:26;;;;;;;6.20;5.60;;;;;;;;;;4934373;28;20505;-90
2023/06/22 13:52:53;;;;;;;8.93;6.10;;;;;;;;;;4927049;28;20475;-91
2023/06/22 13:55:20;;;;;;;6.55;5.80;;;;;;;;;;4924022;28;20046;-90
2023/06/22 13:57:47;;;;;;;;;;;;;;;;;;4974692;28;20054;-90
2023/06/22 14:00:13;;;;;;;8.35;5.97;;;;;;;;;;4979135;28;19926;-89
2023/06/22 14:02:42;;;;;;;6.15;5.43;;;;;;;;;;4950167;28;20042;-90
2023/06/22 14:05:16;;;;;;;6.88;5.60;;;;;;;;;;4938060;28;20746;-90
2023/06/22 14:07:45;;;;;;;6.78;5.22;;;;;;;;;;4939146;28;20046;-90
2023/06/22 14:10:12;;;;;;;7.57;5.88;;;;;;;;;;4935671;28;20134;-90
2023/06/22 14:12:38;;;;;;;6.90;6.18;;;;;;;;;;4953942;28;20113;-90
2023/06/22 14:15:04;;;;;;;6.57;5.97;;;;;;;;;;4978329;28;23033;-89
2023/06/22 14:17:33;;;;;;;7.10;6.25;;;;;;;;;;4948429;28;20045;-89
2023/06/22 14:20:09;;;;;;;8.25;6.35;;;;;;;;;;4944920;28;20287;-88
2023/06/22 14:22:42;;;;;;;7.38;6.63;;;;;;;;;;4942976;28;20692;-89
2023/06/22 14:25:08;;;;;;;6.68;5.95;;;;;;;;;;4941285;28;20038;-90
2023/06/22 14:27:34;;;;;;;6.90;6.20;;;;;;;;;;4928945;28;20070;-89
2023/06/22 14:30:03;;;;;;;6.53;5.95;;;;;;;;;;4961522;28;20064;-88
2023/06/22 14:32:30;;;;;;;7.82;6.68;;;;;;;;;;4958016;28;20835;-89
2023/06/22 14:34:58;;;;;;;8.30;7.47;;;;;;;;;;4956173;28;20042;-87
2023/06/22 14:37:24;;;;;;;7.47;6.47;;;;;;;;;;4956377;28;20042;-87
2023/06/22 14:39:50;;;;;;;6.63;6.03;;;;;;;;;;4955337;28;20401;-87
2023/06/22 14:42:16;;;;;;;7.45;6.47;;;;;;;;;;4978776;28;20477;-87